RYR3CX LIEA-EPKT
Flight info
| Callsign | RYR3CX |
|---|---|
| Flight time | 1h 56m |
| Altitude | 36000 |
| Route | MINKA L5 ROMPO DCT GISPA DCT NIKOL DCT LAPNA DCT LEDVA DCT KATQA DCT UPLAV DCT OGDAS L156 SOPAV DCT BAVOK |
| Aircraft | B738/M-SDE2E3FGHIRWXY/LB1 |
Departure
| Time | 2026-05-06 11:43 |
|---|---|
| Airport | Alghero-Fertilia Airport (LIEA) |
Arrival
| Time | 2026-05-06 13:40 |
|---|---|
| Airport | Katowice Wojciech Korfanty International Airport (EPKT) |
| Time | Latitude | Longitude | Altitude | Speed | Heading |
|---|---|---|---|---|---|
| 2026-05-06 11:21 | 40.63128 | 8.29484 | 90 ft | 0 kts | 113° |
| 2026-05-06 11:35 | 40.63133 | 8.29468 | 117 ft | 3 kts | 106° |
| 2026-05-06 11:36 | 40.63136 | 8.29443 | 87 ft | 3 kts | 83° |
| 2026-05-06 11:36 | 40.63131 | 8.29420 | 93 ft | 3 kts | 46° |
| 2026-05-06 11:36 | 40.63121 | 8.29410 | 92 ft | 1 kts | 23° |
| 2026-05-06 11:38 | 40.63142 | 8.29422 | 94 ft | 8 kts | 25° |
| 2026-05-06 11:38 | 40.63221 | 8.29469 | 91 ft | 16 kts | 25° |
| 2026-05-06 11:39 | 40.63330 | 8.29466 | 92 ft | 16 kts | 348° |
| 2026-05-06 11:39 | 40.63436 | 8.29463 | 94 ft | 15 kts | 19° |
| 2026-05-06 11:39 | 40.63531 | 8.29516 | 96 ft | 15 kts | 24° |
| 2026-05-06 11:39 | 40.63621 | 8.29570 | 95 ft | 14 kts | 25° |
| 2026-05-06 11:40 | 40.63707 | 8.29623 | 100 ft | 13 kts | 25° |
| 2026-05-06 11:40 | 40.63789 | 8.29672 | 100 ft | 13 kts | 24° |
| 2026-05-06 11:40 | 40.63876 | 8.29723 | 98 ft | 16 kts | 24° |
| 2026-05-06 11:40 | 40.63984 | 8.29789 | 100 ft | 17 kts | 26° |
| 2026-05-06 11:41 | 40.64092 | 8.29854 | 98 ft | 17 kts | 24° |
| 2026-05-06 11:41 | 40.64195 | 8.29916 | 96 ft | 16 kts | 24° |
| 2026-05-06 11:41 | 40.64295 | 8.29976 | 96 ft | 15 kts | 24° |
| 2026-05-06 11:41 | 40.64395 | 8.29977 | 97 ft | 15 kts | 332° |
| 2026-05-06 11:42 | 40.64422 | 8.29862 | 94 ft | 14 kts | 251° |
| 2026-05-06 11:42 | 40.64353 | 8.29766 | 96 ft | 18 kts | 210° |
| 2026-05-06 11:42 | 40.64143 | 8.29636 | 99 ft | 64 kts | 204° |
| 2026-05-06 11:42 | 40.63518 | 8.29260 | 97 ft | 131 kts | 204° |
| 2026-05-06 11:43 | 40.62546 | 8.28680 | 332 ft | 164 kts | 205° |
| 2026-05-06 11:43 | 40.61513 | 8.28148 | 1249 ft | 162 kts | 191° |
| 2026-05-06 11:43 | 40.60366 | 8.27903 | 1958 ft | 173 kts | 192° |
| 2026-05-06 11:44 | 40.57877 | 8.27252 | 3386 ft | 196 kts | 192° |
| 2026-05-06 11:44 | 40.56460 | 8.26888 | 3840 ft | 213 kts | 193° |
| 2026-05-06 11:44 | 40.54988 | 8.26518 | 4524 ft | 220 kts | 193° |
| 2026-05-06 11:44 | 40.53487 | 8.26145 | 5363 ft | 221 kts | 193° |
| 2026-05-06 11:45 | 40.51966 | 8.25766 | 6199 ft | 222 kts | 193° |
| 2026-05-06 11:45 | 40.50442 | 8.25389 | 6984 ft | 224 kts | 192° |
| 2026-05-06 11:45 | 40.48862 | 8.25476 | 7746 ft | 231 kts | 163° |
| 2026-05-06 11:45 | 40.47517 | 8.26672 | 8401 ft | 248 kts | 133° |
| 2026-05-06 11:46 | 40.46763 | 8.28825 | 8634 ft | 281 kts | 104° |
| 2026-05-06 11:46 | 40.46414 | 8.31434 | 9163 ft | 296 kts | 102° |
| 2026-05-06 11:46 | 40.46062 | 8.34118 | 9924 ft | 301 kts | 103° |
| 2026-05-06 11:46 | 40.45676 | 8.36872 | 10454 ft | 315 kts | 104° |
| 2026-05-06 11:47 | 40.45268 | 8.39810 | 10716 ft | 339 kts | 98° |
| 2026-05-06 11:47 | 40.45457 | 8.42943 | 11301 ft | 352 kts | 75° |
| 2026-05-06 11:47 | 40.46548 | 8.45835 | 12075 ft | 357 kts | 56° |
| 2026-05-06 11:47 | 40.47973 | 8.48519 | 12822 ft | 361 kts | 54° |
| 2026-05-06 11:48 | 40.49432 | 8.51232 | 13543 ft | 366 kts | 54° |
| 2026-05-06 11:48 | 40.50890 | 8.54000 | 14224 ft | 371 kts | 56° |
| 2026-05-06 11:48 | 40.52373 | 8.56861 | 14883 ft | 376 kts | 56° |
| 2026-05-06 11:48 | 40.53846 | 8.59724 | 15510 ft | 382 kts | 56° |
| 2026-05-06 11:49 | 40.55326 | 8.62604 | 16140 ft | 387 kts | 57° |
| 2026-05-06 11:49 | 40.56840 | 8.65550 | 16833 ft | 391 kts | 57° |
| 2026-05-06 11:49 | 40.58649 | 8.68244 | 17444 ft | 398 kts | 37° |
| 2026-05-06 11:49 | 40.61001 | 8.70178 | 18078 ft | 401 kts | 28° |
| 2026-05-06 11:50 | 40.63462 | 8.71966 | 18616 ft | 407 kts | 27° |
| 2026-05-06 11:50 | 40.65957 | 8.73757 | 19160 ft | 411 kts | 27° |
| 2026-05-06 11:50 | 40.68468 | 8.75579 | 19735 ft | 414 kts | 27° |
| 2026-05-06 11:50 | 40.70997 | 8.77442 | 20301 ft | 418 kts | 27° |
| 2026-05-06 11:51 | 40.73539 | 8.79334 | 20823 ft | 422 kts | 28° |
| 2026-05-06 11:51 | 40.76113 | 8.81260 | 21321 ft | 427 kts | 27° |
| 2026-05-06 11:51 | 40.78707 | 8.83202 | 21845 ft | 431 kts | 28° |
| 2026-05-06 11:51 | 40.81144 | 8.85530 | 22336 ft | 437 kts | 45° |
| 2026-05-06 11:52 | 40.82973 | 8.88741 | 22823 ft | 439 kts | 65° |
| 2026-05-06 11:52 | 40.84204 | 8.92430 | 23362 ft | 441 kts | 70° |
| 2026-05-06 11:52 | 40.85340 | 8.96213 | 23781 ft | 445 kts | 71° |
| 2026-05-06 11:52 | 40.86470 | 9.00048 | 24173 ft | 449 kts | 71° |
| 2026-05-06 11:53 | 40.87619 | 9.03902 | 24600 ft | 453 kts | 71° |
| 2026-05-06 11:53 | 40.88791 | 9.07766 | 25028 ft | 456 kts | 70° |
| 2026-05-06 11:53 | 40.89986 | 9.11653 | 25445 ft | 459 kts | 70° |
| 2026-05-06 11:53 | 40.91202 | 9.15585 | 25844 ft | 462 kts | 70° |
| 2026-05-06 11:54 | 40.92419 | 9.19520 | 26223 ft | 465 kts | 70° |
| 2026-05-06 11:54 | 40.93647 | 9.23500 | 26613 ft | 468 kts | 71° |
| 2026-05-06 11:54 | 40.94875 | 9.27488 | 27011 ft | 470 kts | 71° |
| 2026-05-06 11:54 | 40.96105 | 9.31510 | 27389 ft | 473 kts | 71° |
| 2026-05-06 11:55 | 40.97342 | 9.35565 | 27764 ft | 477 kts | 71° |
| 2026-05-06 11:55 | 40.98585 | 9.39655 | 28116 ft | 480 kts | 71° |
| 2026-05-06 11:55 | 40.99834 | 9.43765 | 28452 ft | 483 kts | 71° |
| 2026-05-06 11:55 | 41.01089 | 9.47899 | 28841 ft | 485 kts | 71° |
| 2026-05-06 11:56 | 41.02347 | 9.52050 | 29197 ft | 488 kts | 71° |
| 2026-05-06 11:56 | 41.03618 | 9.56249 | 29525 ft | 491 kts | 71° |
| 2026-05-06 11:56 | 41.04891 | 9.60460 | 29835 ft | 493 kts | 71° |
| 2026-05-06 11:56 | 41.06165 | 9.64682 | 30120 ft | 496 kts | 71° |
| 2026-05-06 11:57 | 41.07447 | 9.68936 | 30381 ft | 499 kts | 71° |
| 2026-05-06 11:57 | 41.08735 | 9.73215 | 30669 ft | 500 kts | 71° |
| 2026-05-06 11:57 | 41.10079 | 9.77475 | 30935 ft | 504 kts | 66° |
| 2026-05-06 11:57 | 41.11778 | 9.81557 | 31193 ft | 507 kts | 60° |
| 2026-05-06 11:58 | 41.13620 | 9.85563 | 31501 ft | 508 kts | 59° |
| 2026-05-06 11:58 | 41.15488 | 9.89522 | 31861 ft | 507 kts | 59° |
| 2026-05-06 11:58 | 41.17364 | 9.93486 | 32210 ft | 506 kts | 59° |
| 2026-05-06 11:58 | 41.19223 | 9.97446 | 32498 ft | 507 kts | 59° |
| 2026-05-06 11:59 | 41.21078 | 10.01439 | 32795 ft | 508 kts | 59° |
| 2026-05-06 11:59 | 41.22927 | 10.05456 | 33099 ft | 508 kts | 60° |
| 2026-05-06 11:59 | 41.24759 | 10.09463 | 33397 ft | 509 kts | 60° |
| 2026-05-06 11:59 | 41.26592 | 10.13488 | 33683 ft | 509 kts | 60° |
| 2026-05-06 12:00 | 41.28397 | 10.17458 | 33997 ft | 508 kts | 60° |
| 2026-05-06 12:00 | 41.30222 | 10.21476 | 34310 ft | 507 kts | 60° |
| 2026-05-06 12:00 | 41.32060 | 10.25528 | 34656 ft | 504 kts | 60° |
| 2026-05-06 12:00 | 41.33838 | 10.29448 | 35016 ft | 501 kts | 59° |
| 2026-05-06 12:01 | 41.35633 | 10.33406 | 35416 ft | 496 kts | 59° |
| 2026-05-06 12:01 | 41.37406 | 10.37317 | 35849 ft | 491 kts | 59° |
| 2026-05-06 12:01 | 41.39167 | 10.41219 | 35979 ft | 494 kts | 59° |
| 2026-05-06 12:01 | 41.40966 | 10.45208 | 35972 ft | 497 kts | 59° |
| 2026-05-06 12:02 | 41.44500 | 10.53062 | 35964 ft | 496 kts | 59° |
| 2026-05-06 12:02 | 41.48008 | 10.60874 | 35958 ft | 489 kts | 60° |
| 2026-05-06 12:03 | 41.51494 | 10.68654 | 35972 ft | 488 kts | 60° |
| 2026-05-06 12:03 | 41.54968 | 10.76429 | 35972 ft | 488 kts | 60° |
| 2026-05-06 12:04 | 41.58436 | 10.84210 | 35968 ft | 487 kts | 60° |
| 2026-05-06 12:04 | 41.61921 | 10.92050 | 35971 ft | 488 kts | 60° |
| 2026-05-06 12:05 | 41.65380 | 10.99853 | 35973 ft | 488 kts | 60° |
| 2026-05-06 12:05 | 41.68815 | 11.07621 | 35974 ft | 489 kts | 60° |
| 2026-05-06 12:06 | 41.72268 | 11.15450 | 35976 ft | 489 kts | 60° |
| 2026-05-06 12:06 | 41.75723 | 11.23303 | 35976 ft | 490 kts | 60° |
| 2026-05-06 12:07 | 41.79262 | 11.31087 | 35966 ft | 491 kts | 53° |
| 2026-05-06 12:07 | 41.83990 | 11.37638 | 35973 ft | 488 kts | 34° |
| 2026-05-06 12:08 | 41.89558 | 11.42798 | 35980 ft | 487 kts | 31° |
| 2026-05-06 12:08 | 41.95180 | 11.47873 | 35989 ft | 487 kts | 32° |
| 2026-05-06 12:09 | 42.00780 | 11.53008 | 35977 ft | 488 kts | 32° |
| 2026-05-06 12:09 | 42.06373 | 11.58207 | 35984 ft | 488 kts | 32° |
| 2026-05-06 12:10 | 42.11948 | 11.63420 | 35993 ft | 488 kts | 32° |
| 2026-05-06 12:10 | 42.17519 | 11.68638 | 35986 ft | 488 kts | 32° |
| 2026-05-06 12:11 | 42.23050 | 11.73829 | 35996 ft | 487 kts | 32° |
| 2026-05-06 12:11 | 42.28614 | 11.79059 | 35994 ft | 487 kts | 32° |
| 2026-05-06 12:12 | 42.34202 | 11.84324 | 35995 ft | 487 kts | 32° |
| 2026-05-06 12:12 | 42.38825 | 11.88688 | 35996 ft | 486 kts | 32° |
| 2026-05-06 12:13 | 42.45274 | 11.94789 | 35999 ft | 486 kts | 32° |
| 2026-05-06 12:13 | 42.49910 | 11.99185 | 35994 ft | 486 kts | 32° |
| 2026-05-06 12:14 | 42.55458 | 12.04456 | 35995 ft | 486 kts | 32° |
| 2026-05-06 12:14 | 42.60980 | 12.09715 | 35996 ft | 485 kts | 32° |
| 2026-05-06 12:15 | 42.66491 | 12.14974 | 35989 ft | 484 kts | 32° |
| 2026-05-06 12:15 | 42.72004 | 12.20247 | 36000 ft | 483 kts | 32° |
| 2026-05-06 12:16 | 42.77493 | 12.25508 | 35985 ft | 484 kts | 32° |
| 2026-05-06 12:16 | 42.82990 | 12.30789 | 35974 ft | 483 kts | 32° |
| 2026-05-06 12:17 | 42.88439 | 12.36036 | 35974 ft | 482 kts | 33° |
| 2026-05-06 12:17 | 42.93951 | 12.41354 | 35972 ft | 482 kts | 33° |
| 2026-05-06 12:18 | 42.99395 | 12.46619 | 35965 ft | 483 kts | 33° |
| 2026-05-06 12:18 | 43.04873 | 12.51928 | 35973 ft | 483 kts | 33° |
| 2026-05-06 12:19 | 43.10343 | 12.57242 | 35973 ft | 483 kts | 33° |
| 2026-05-06 12:19 | 43.15820 | 12.62574 | 35969 ft | 483 kts | 33° |
| 2026-05-06 12:20 | 43.21301 | 12.67923 | 35956 ft | 484 kts | 33° |
| 2026-05-06 12:20 | 43.26724 | 12.73226 | 35956 ft | 483 kts | 33° |
| 2026-05-06 12:21 | 43.32195 | 12.78588 | 35965 ft | 483 kts | 33° |
| 2026-05-06 12:21 | 43.37664 | 12.83962 | 35954 ft | 482 kts | 33° |
| 2026-05-06 12:22 | 43.43124 | 12.89337 | 35950 ft | 483 kts | 33° |
| 2026-05-06 12:22 | 43.48578 | 12.94719 | 35935 ft | 483 kts | 34° |
| 2026-05-06 12:23 | 43.54045 | 13.00127 | 35939 ft | 483 kts | 34° |
| 2026-05-06 12:23 | 43.59497 | 13.05531 | 35938 ft | 483 kts | 34° |
| 2026-05-06 12:24 | 43.64951 | 13.10951 | 35936 ft | 483 kts | 34° |
| 2026-05-06 12:24 | 43.70398 | 13.16375 | 35934 ft | 483 kts | 34° |
| 2026-05-06 12:25 | 43.75846 | 13.21813 | 35929 ft | 482 kts | 34° |
| 2026-05-06 12:25 | 43.81277 | 13.27246 | 35928 ft | 481 kts | 34° |
| 2026-05-06 12:26 | 43.86693 | 13.32678 | 35929 ft | 481 kts | 34° |
| 2026-05-06 12:26 | 43.92097 | 13.38110 | 35927 ft | 480 kts | 34° |
| 2026-05-06 12:27 | 43.97503 | 13.43555 | 35926 ft | 480 kts | 34° |
| 2026-05-06 12:27 | 44.02897 | 13.49002 | 35931 ft | 479 kts | 35° |
| 2026-05-06 12:28 | 44.08290 | 13.54461 | 35930 ft | 479 kts | 35° |
| 2026-05-06 12:28 | 44.13677 | 13.59926 | 35931 ft | 479 kts | 35° |
| 2026-05-06 12:29 | 44.19067 | 13.65405 | 35935 ft | 479 kts | 35° |
| 2026-05-06 12:29 | 44.24543 | 13.70537 | 35944 ft | 477 kts | 27° |
| 2026-05-06 12:30 | 44.30380 | 13.74949 | 35940 ft | 477 kts | 26° |
| 2026-05-06 12:30 | 44.36212 | 13.79277 | 35948 ft | 478 kts | 26° |
| 2026-05-06 12:31 | 44.42098 | 13.83708 | 35950 ft | 478 kts | 26° |
| 2026-05-06 12:31 | 44.47911 | 13.88136 | 35951 ft | 479 kts | 27° |
| 2026-05-06 12:32 | 44.53759 | 13.92614 | 35952 ft | 479 kts | 27° |
| 2026-05-06 12:32 | 44.59605 | 13.97101 | 35962 ft | 480 kts | 27° |
| 2026-05-06 12:33 | 44.65499 | 14.01633 | 35965 ft | 480 kts | 27° |
| 2026-05-06 12:33 | 44.71326 | 14.06122 | 35966 ft | 480 kts | 27° |
| 2026-05-06 12:34 | 44.77175 | 14.10639 | 35967 ft | 480 kts | 27° |
| 2026-05-06 12:34 | 44.83030 | 14.15172 | 35971 ft | 480 kts | 27° |
| 2026-05-06 12:35 | 44.88881 | 14.19711 | 35965 ft | 480 kts | 27° |
| 2026-05-06 12:35 | 44.94737 | 14.24266 | 35982 ft | 480 kts | 27° |
| 2026-05-06 12:36 | 45.00594 | 14.28831 | 35971 ft | 481 kts | 27° |
| 2026-05-06 12:36 | 45.06447 | 14.33404 | 35982 ft | 480 kts | 27° |
| 2026-05-06 12:37 | 45.12291 | 14.37981 | 35990 ft | 481 kts | 27° |
| 2026-05-06 12:37 | 45.18154 | 14.42584 | 35981 ft | 482 kts | 27° |
| 2026-05-06 12:38 | 45.24012 | 14.47194 | 36002 ft | 480 kts | 27° |
| 2026-05-06 12:38 | 45.29839 | 14.51791 | 36000 ft | 480 kts | 27° |
| 2026-05-06 12:39 | 45.35676 | 14.56406 | 35988 ft | 479 kts | 27° |
| 2026-05-06 12:39 | 45.41495 | 14.61018 | 35982 ft | 478 kts | 27° |
| 2026-05-06 12:40 | 45.47298 | 14.65628 | 35978 ft | 477 kts | 27° |
| 2026-05-06 12:40 | 45.53091 | 14.70242 | 35963 ft | 476 kts | 27° |
| 2026-05-06 12:41 | 45.58870 | 14.74855 | 35958 ft | 475 kts | 27° |
| 2026-05-06 12:41 | 45.64624 | 14.79459 | 35959 ft | 474 kts | 27° |
| 2026-05-06 12:42 | 45.70371 | 14.84068 | 35963 ft | 472 kts | 27° |
| 2026-05-06 12:42 | 45.76100 | 14.88674 | 35952 ft | 473 kts | 27° |
| 2026-05-06 12:43 | 45.81831 | 14.93291 | 35955 ft | 473 kts | 27° |
| 2026-05-06 12:43 | 45.87567 | 14.97925 | 35948 ft | 474 kts | 27° |
| 2026-05-06 12:44 | 45.93310 | 15.02575 | 35925 ft | 475 kts | 27° |
| 2026-05-06 12:44 | 45.99029 | 15.07217 | 35943 ft | 474 kts | 26° |
| 2026-05-06 12:45 | 46.04771 | 15.11889 | 35936 ft | 474 kts | 26° |
| 2026-05-06 12:46 | 46.13384 | 15.18918 | 35928 ft | 475 kts | 26° |
| 2026-05-06 12:46 | 46.19132 | 15.23623 | 35930 ft | 475 kts | 26° |
| 2026-05-06 12:47 | 46.24867 | 15.28329 | 35914 ft | 474 kts | 26° |
| 2026-05-06 12:47 | 46.30578 | 15.33027 | 35925 ft | 472 kts | 26° |
| 2026-05-06 12:48 | 46.36279 | 15.37728 | 35908 ft | 471 kts | 26° |
| 2026-05-06 12:48 | 46.41973 | 15.42435 | 35915 ft | 469 kts | 26° |
| 2026-05-06 12:49 | 46.47634 | 15.47125 | 35908 ft | 469 kts | 26° |
| 2026-05-06 12:49 | 46.53304 | 15.51802 | 35914 ft | 467 kts | 24° |
| 2026-05-06 12:50 | 46.59253 | 15.55373 | 35915 ft | 463 kts | 16° |
| 2026-05-06 12:50 | 46.65310 | 15.58635 | 35915 ft | 464 kts | 16° |
| 2026-05-06 12:51 | 46.71375 | 15.61933 | 35896 ft | 465 kts | 16° |
| 2026-05-06 12:51 | 46.77428 | 15.65285 | 35886 ft | 466 kts | 17° |
| 2026-05-06 12:52 | 46.83477 | 15.68666 | 35901 ft | 467 kts | 17° |
| 2026-05-06 12:52 | 46.89554 | 15.72074 | 35880 ft | 467 kts | 17° |
| 2026-05-06 12:53 | 46.95626 | 15.75487 | 35880 ft | 467 kts | 17° |
| 2026-05-06 12:53 | 47.01689 | 15.78902 | 35881 ft | 467 kts | 17° |
| 2026-05-06 12:54 | 47.07761 | 15.82329 | 35873 ft | 467 kts | 17° |
| 2026-05-06 12:54 | 47.13823 | 15.85759 | 35868 ft | 467 kts | 17° |
| 2026-05-06 12:55 | 47.19885 | 15.89197 | 35870 ft | 466 kts | 17° |
| 2026-05-06 12:55 | 47.25932 | 15.92635 | 35860 ft | 466 kts | 17° |
| 2026-05-06 12:56 | 47.31951 | 15.96066 | 35857 ft | 466 kts | 17° |
| 2026-05-06 12:56 | 47.38001 | 15.99522 | 35856 ft | 466 kts | 17° |
| 2026-05-06 12:57 | 47.44045 | 16.02984 | 35855 ft | 466 kts | 17° |
| 2026-05-06 12:57 | 47.50095 | 16.06458 | 35845 ft | 467 kts | 17° |
| 2026-05-06 12:58 | 47.56147 | 16.09941 | 35847 ft | 468 kts | 17° |
| 2026-05-06 12:58 | 47.62219 | 16.13445 | 35834 ft | 469 kts | 17° |
| 2026-05-06 12:59 | 47.67284 | 16.16374 | 35820 ft | 470 kts | 17° |
| 2026-05-06 12:59 | 47.73379 | 16.19908 | 35820 ft | 471 kts | 17° |
| 2026-05-06 13:00 | 47.79486 | 16.23457 | 35813 ft | 471 kts | 17° |
| 2026-05-06 13:00 | 47.85588 | 16.27013 | 35801 ft | 471 kts | 17° |
| 2026-05-06 13:01 | 47.91695 | 16.30581 | 35793 ft | 471 kts | 17° |
| 2026-05-06 13:01 | 47.97784 | 16.34147 | 35797 ft | 470 kts | 17° |
| 2026-05-06 13:02 | 48.03862 | 16.37715 | 35803 ft | 469 kts | 17° |
| 2026-05-06 13:02 | 48.09935 | 16.41290 | 35798 ft | 469 kts | 17° |
| 2026-05-06 13:03 | 48.15987 | 16.44862 | 35803 ft | 468 kts | 17° |
| 2026-05-06 13:03 | 48.22027 | 16.48435 | 35800 ft | 467 kts | 17° |
| 2026-05-06 13:04 | 48.28074 | 16.52022 | 35800 ft | 467 kts | 17° |
| 2026-05-06 13:04 | 48.34116 | 16.55614 | 35797 ft | 467 kts | 17° |
| 2026-05-06 13:05 | 48.40138 | 16.59205 | 35799 ft | 467 kts | 17° |
| 2026-05-06 13:05 | 48.46176 | 16.62813 | 35801 ft | 467 kts | 17° |
| 2026-05-06 13:06 | 48.52212 | 16.66430 | 35801 ft | 467 kts | 17° |
| 2026-05-06 13:06 | 48.58249 | 16.70057 | 35789 ft | 467 kts | 17° |
| 2026-05-06 13:07 | 48.64288 | 16.73695 | 35798 ft | 467 kts | 18° |
| 2026-05-06 13:07 | 48.70310 | 16.77406 | 35791 ft | 470 kts | 23° |
| 2026-05-06 13:08 | 48.75731 | 16.82989 | 35790 ft | 474 kts | 43° |
| 2026-05-06 13:08 | 48.80278 | 16.90074 | 35795 ft | 470 kts | 45° |
| 2026-05-06 13:09 | 48.84765 | 16.97235 | 35607 ft | 468 kts | 45° |
| 2026-05-06 13:09 | 48.87015 | 17.00775 | 35276 ft | 464 kts | 44° |
| 2026-05-06 13:09 | 48.89260 | 17.04283 | 34895 ft | 460 kts | 44° |
| 2026-05-06 13:09 | 48.91480 | 17.07743 | 34540 ft | 457 kts | 44° |
| 2026-05-06 13:10 | 48.93699 | 17.11201 | 34156 ft | 454 kts | 43° |
| 2026-05-06 13:10 | 48.95895 | 17.14630 | 33769 ft | 452 kts | 43° |
| 2026-05-06 13:10 | 48.98078 | 17.18043 | 33340 ft | 450 kts | 44° |
| 2026-05-06 13:10 | 49.00256 | 17.21457 | 32940 ft | 447 kts | 44° |
| 2026-05-06 13:11 | 49.02521 | 17.24660 | 32547 ft | 442 kts | 36° |
| 2026-05-06 13:11 | 49.05039 | 17.27269 | 32240 ft | 434 kts | 28° |
| 2026-05-06 13:11 | 49.07604 | 17.29646 | 31853 ft | 431 kts | 28° |
| 2026-05-06 13:11 | 49.10176 | 17.31990 | 31489 ft | 429 kts | 28° |
| 2026-05-06 13:12 | 49.12654 | 17.34262 | 31123 ft | 426 kts | 29° |
| 2026-05-06 13:12 | 49.15174 | 17.36598 | 30769 ft | 424 kts | 29° |
| 2026-05-06 13:12 | 49.17685 | 17.38951 | 30410 ft | 422 kts | 30° |
| 2026-05-06 13:12 | 49.20175 | 17.41299 | 30053 ft | 420 kts | 30° |
| 2026-05-06 13:13 | 49.22652 | 17.43643 | 29648 ft | 417 kts | 30° |
| 2026-05-06 13:13 | 49.25109 | 17.45972 | 29247 ft | 415 kts | 30° |
| 2026-05-06 13:13 | 49.27557 | 17.48294 | 28853 ft | 411 kts | 30° |
| 2026-05-06 13:13 | 49.29974 | 17.50588 | 28503 ft | 408 kts | 30° |
| 2026-05-06 13:14 | 49.32379 | 17.52894 | 28114 ft | 406 kts | 32° |
| 2026-05-06 13:14 | 49.34661 | 17.55370 | 27825 ft | 401 kts | 36° |
| 2026-05-06 13:14 | 49.36879 | 17.57971 | 27444 ft | 399 kts | 37° |
| 2026-05-06 13:14 | 49.39056 | 17.60592 | 27092 ft | 397 kts | 37° |
| 2026-05-06 13:15 | 49.41225 | 17.63208 | 26727 ft | 395 kts | 37° |
| 2026-05-06 13:15 | 49.43377 | 17.65788 | 26365 ft | 393 kts | 37° |
| 2026-05-06 13:15 | 49.45547 | 17.68375 | 26018 ft | 391 kts | 37° |
| 2026-05-06 13:15 | 49.47692 | 17.70921 | 25662 ft | 390 kts | 37° |
| 2026-05-06 13:16 | 49.49836 | 17.73461 | 25302 ft | 388 kts | 37° |
| 2026-05-06 13:16 | 49.51973 | 17.75993 | 24957 ft | 387 kts | 37° |
| 2026-05-06 13:16 | 49.54101 | 17.78516 | 24613 ft | 386 kts | 37° |
| 2026-05-06 13:16 | 49.56227 | 17.81039 | 24227 ft | 386 kts | 37° |
| 2026-05-06 13:17 | 49.58350 | 17.83562 | 23889 ft | 385 kts | 37° |
| 2026-05-06 13:17 | 49.60444 | 17.86053 | 23531 ft | 384 kts | 37° |
| 2026-05-06 13:17 | 49.62550 | 17.88562 | 23143 ft | 383 kts | 37° |
| 2026-05-06 13:17 | 49.64655 | 17.91071 | 22746 ft | 381 kts | 37° |
| 2026-05-06 13:18 | 49.66746 | 17.93568 | 22377 ft | 379 kts | 37° |
| 2026-05-06 13:18 | 49.68868 | 17.95973 | 22009 ft | 376 kts | 30° |
| 2026-05-06 13:18 | 49.71182 | 17.97794 | 21669 ft | 371 kts | 20° |
| 2026-05-06 13:18 | 49.73623 | 17.98952 | 21371 ft | 365 kts | 9° |
| 2026-05-06 13:19 | 49.76104 | 17.99756 | 21038 ft | 363 kts | 8° |
| 2026-05-06 13:19 | 49.78570 | 18.00510 | 20688 ft | 361 kts | 8° |
| 2026-05-06 13:19 | 49.81035 | 18.01271 | 20326 ft | 360 kts | 9° |
| 2026-05-06 13:19 | 49.83486 | 18.02049 | 19992 ft | 359 kts | 9° |
| 2026-05-06 13:20 | 49.85927 | 18.02841 | 19652 ft | 358 kts | 9° |
| 2026-05-06 13:20 | 49.88364 | 18.03640 | 19302 ft | 358 kts | 9° |
| 2026-05-06 13:20 | 49.90792 | 18.04475 | 18952 ft | 358 kts | 15° |
| 2026-05-06 13:20 | 49.93050 | 18.06081 | 18596 ft | 359 kts | 33° |
| 2026-05-06 13:21 | 49.94927 | 18.08599 | 18262 ft | 357 kts | 51° |
| 2026-05-06 13:21 | 49.96443 | 18.11634 | 17900 ft | 355 kts | 54° |
| 2026-05-06 13:21 | 49.97928 | 18.14700 | 17516 ft | 355 kts | 54° |
| 2026-05-06 13:21 | 49.99425 | 18.17737 | 17154 ft | 353 kts | 53° |
| 2026-05-06 13:22 | 50.00908 | 18.20769 | 16806 ft | 351 kts | 55° |
| 2026-05-06 13:22 | 50.02308 | 18.23872 | 16460 ft | 349 kts | 57° |
| 2026-05-06 13:22 | 50.03668 | 18.26985 | 16115 ft | 348 kts | 57° |
| 2026-05-06 13:22 | 50.05024 | 18.30100 | 15782 ft | 347 kts | 57° |
| 2026-05-06 13:23 | 50.06377 | 18.33195 | 15442 ft | 346 kts | 56° |
| 2026-05-06 13:23 | 50.07732 | 18.36284 | 15101 ft | 345 kts | 56° |
| 2026-05-06 13:23 | 50.09088 | 18.39366 | 14775 ft | 344 kts | 56° |
| 2026-05-06 13:23 | 50.10435 | 18.42425 | 14444 ft | 342 kts | 56° |
| 2026-05-06 13:24 | 50.11779 | 18.45480 | 14133 ft | 342 kts | 56° |
| 2026-05-06 13:24 | 50.13121 | 18.48521 | 13813 ft | 340 kts | 54° |
| 2026-05-06 13:24 | 50.14590 | 18.51418 | 13484 ft | 339 kts | 49° |
| 2026-05-06 13:24 | 50.16135 | 18.54155 | 13152 ft | 336 kts | 47° |
| 2026-05-06 13:25 | 50.17690 | 18.56869 | 12837 ft | 334 kts | 47° |
| 2026-05-06 13:25 | 50.19221 | 18.59585 | 12544 ft | 332 kts | 48° |
| 2026-05-06 13:25 | 50.20729 | 18.62301 | 12236 ft | 330 kts | 49° |
| 2026-05-06 13:25 | 50.22222 | 18.65008 | 11927 ft | 327 kts | 49° |
| 2026-05-06 13:26 | 50.23760 | 18.67597 | 11667 ft | 324 kts | 41° |
| 2026-05-06 13:26 | 50.25490 | 18.69808 | 11452 ft | 319 kts | 36° |
| 2026-05-06 13:26 | 50.27256 | 18.71866 | 11232 ft | 315 kts | 35° |
| 2026-05-06 13:26 | 50.29006 | 18.73899 | 11022 ft | 312 kts | 36° |
| 2026-05-06 13:27 | 50.30733 | 18.75939 | 10808 ft | 310 kts | 36° |
| 2026-05-06 13:27 | 50.32433 | 18.77982 | 10590 ft | 307 kts | 37° |
| 2026-05-06 13:27 | 50.34117 | 18.80028 | 10372 ft | 305 kts | 37° |
| 2026-05-06 13:27 | 50.35785 | 18.82064 | 10164 ft | 304 kts | 37° |
| 2026-05-06 13:28 | 50.37446 | 18.84139 | 9959 ft | 306 kts | 43° |
| 2026-05-06 13:28 | 50.38644 | 18.86846 | 9719 ft | 301 kts | 71° |
| 2026-05-06 13:28 | 50.39038 | 18.90003 | 9530 ft | 292 kts | 92° |
| 2026-05-06 13:28 | 50.39020 | 18.93168 | 9328 ft | 291 kts | 95° |
| 2026-05-06 13:29 | 50.38978 | 18.96346 | 9104 ft | 292 kts | 94° |
| 2026-05-06 13:29 | 50.38940 | 18.99490 | 8886 ft | 293 kts | 94° |
| 2026-05-06 13:29 | 50.38912 | 19.02717 | 8682 ft | 292 kts | 94° |
| 2026-05-06 13:29 | 50.38888 | 19.05902 | 8485 ft | 293 kts | 94° |
| 2026-05-06 13:30 | 50.38867 | 19.09088 | 8266 ft | 293 kts | 94° |
| 2026-05-06 13:30 | 50.38844 | 19.12279 | 8064 ft | 292 kts | 93° |
| 2026-05-06 13:30 | 50.38827 | 19.15451 | 7843 ft | 290 kts | 93° |
| 2026-05-06 13:30 | 50.38810 | 19.18607 | 7626 ft | 288 kts | 94° |
| 2026-05-06 13:31 | 50.38789 | 19.21728 | 7435 ft | 285 kts | 93° |
| 2026-05-06 13:31 | 50.38767 | 19.24822 | 7257 ft | 284 kts | 93° |
| 2026-05-06 13:31 | 50.38747 | 19.27924 | 7047 ft | 285 kts | 94° |
| 2026-05-06 13:31 | 50.38726 | 19.31017 | 6830 ft | 283 kts | 94° |
| 2026-05-06 13:32 | 50.38706 | 19.34047 | 6641 ft | 280 kts | 94° |
| 2026-05-06 13:32 | 50.38687 | 19.37098 | 6436 ft | 279 kts | 94° |
| 2026-05-06 13:32 | 50.38671 | 19.40111 | 6235 ft | 276 kts | 93° |
| 2026-05-06 13:32 | 50.38654 | 19.43145 | 6011 ft | 274 kts | 93° |
| 2026-05-06 13:33 | 50.38696 | 19.46087 | 5808 ft | 276 kts | 81° |
| 2026-05-06 13:33 | 50.39455 | 19.48844 | 5582 ft | 278 kts | 51° |
| 2026-05-06 13:33 | 50.40944 | 19.50664 | 5420 ft | 270 kts | 21° |
| 2026-05-06 13:33 | 50.42743 | 19.51279 | 5208 ft | 265 kts | 359° |
| 2026-05-06 13:34 | 50.44567 | 19.51316 | 5104 ft | 259 kts | 351° |
| 2026-05-06 13:34 | 50.46199 | 19.50431 | 5018 ft | 242 kts | 317° |
| 2026-05-06 13:34 | 50.47171 | 19.48456 | 4965 ft | 223 kts | 286° |
| 2026-05-06 13:34 | 50.47483 | 19.46041 | 4553 ft | 230 kts | 270° |
| 2026-05-06 13:35 | 50.47511 | 19.43508 | 4237 ft | 233 kts | 267° |
| 2026-05-06 13:35 | 50.47514 | 19.40979 | 4112 ft | 230 kts | 267° |
| 2026-05-06 13:35 | 50.47523 | 19.38485 | 3938 ft | 227 kts | 266° |
| 2026-05-06 13:35 | 50.47517 | 19.36038 | 3792 ft | 220 kts | 267° |
| 2026-05-06 13:36 | 50.47522 | 19.33681 | 3618 ft | 212 kts | 267° |
| 2026-05-06 13:36 | 50.47538 | 19.31416 | 3414 ft | 203 kts | 268° |
| 2026-05-06 13:36 | 50.47564 | 19.29265 | 3249 ft | 191 kts | 265° |
| 2026-05-06 13:36 | 50.47571 | 19.27245 | 3066 ft | 181 kts | 267° |
| 2026-05-06 13:37 | 50.47574 | 19.25307 | 2936 ft | 177 kts | 266° |
| 2026-05-06 13:37 | 50.47588 | 19.23423 | 2717 ft | 165 kts | 265° |
| 2026-05-06 13:37 | 50.47581 | 19.21682 | 2533 ft | 153 kts | 265° |
| 2026-05-06 13:37 | 50.47611 | 19.20087 | 2306 ft | 140 kts | 266° |
| 2026-05-06 13:38 | 50.47589 | 19.18579 | 2129 ft | 137 kts | 264° |
| 2026-05-06 13:38 | 50.47581 | 19.17084 | 1958 ft | 137 kts | 266° |
| 2026-05-06 13:38 | 50.47584 | 19.15583 | 1754 ft | 139 kts | 265° |
| 2026-05-06 13:38 | 50.47588 | 19.14040 | 1556 ft | 142 kts | 265° |
| 2026-05-06 13:39 | 50.47593 | 19.12473 | 1350 ft | 143 kts | 267° |
| 2026-05-06 13:39 | 50.47597 | 19.10911 | 1167 ft | 140 kts | 265° |
| 2026-05-06 13:39 | 50.47597 | 19.09420 | 1002 ft | 130 kts | 265° |
| 2026-05-06 13:39 | 50.47599 | 19.08220 | 997 ft | 88 kts | 270° |
| 2026-05-06 13:40 | 50.47601 | 19.07490 | 999 ft | 49 kts | 271° |
| 2026-05-06 13:40 | 50.47561 | 19.07066 | 1000 ft | 32 kts | 248° |
| 2026-05-06 13:40 | 50.47468 | 19.06794 | 1000 ft | 25 kts | 240° |
| 2026-05-06 13:40 | 50.47371 | 19.06625 | 997 ft | 19 kts | 186° |
| 2026-05-06 13:41 | 50.47249 | 19.06650 | 997 ft | 18 kts | 133° |
| 2026-05-06 13:41 | 50.47235 | 19.06839 | 1002 ft | 18 kts | 90° |
| 2026-05-06 13:41 | 50.47235 | 19.07029 | 1000 ft | 17 kts | 90° |
| 2026-05-06 13:41 | 50.47235 | 19.07215 | 1002 ft | 17 kts | 90° |
| 2026-05-06 13:42 | 50.47234 | 19.07397 | 1002 ft | 16 kts | 90° |
| 2026-05-06 13:42 | 50.47234 | 19.07569 | 999 ft | 15 kts | 90° |
| 2026-05-06 13:42 | 50.47234 | 19.07735 | 1000 ft | 15 kts | 90° |
| 2026-05-06 13:42 | 50.47234 | 19.07891 | 1002 ft | 14 kts | 90° |
| 2026-05-06 13:43 | 50.47186 | 19.07966 | 1000 ft | 11 kts | 185° |
| 2026-05-06 13:43 | 50.47143 | 19.07966 | 1000 ft | 0 kts | 180° |